createdAt,value
2018-01-27T00:02:02.191Z,47.63
2018-01-27T00:04:30.589Z,37.77
2018-01-27T00:06:58.988Z,56.33
2018-01-27T00:09:27.466Z,50.90
2018-01-27T00:11:55.850Z,52.23
2018-01-27T00:14:24.272Z,51.27
2018-01-27T00:16:52.708Z,47.40
2018-01-27T00:19:21.116Z,47.87
2018-01-27T00:21:49.519Z,42.67
2018-01-27T00:24:17.969Z,49.53
2018-01-27T00:26:46.380Z,42.40
2018-01-27T00:29:14.774Z,53.23
2018-01-27T00:31:43.202Z,44.47
2018-01-27T00:34:11.612Z,40.77
2018-01-27T00:36:40.025Z,50.83
2018-01-27T00:39:08.718Z,50.93
2018-01-27T00:41:37.138Z,48.73
2018-01-27T00:44:05.572Z,59.83
2018-01-27T00:46:34.010Z,41.70
2018-01-27T00:49:02.423Z,60.67
2018-01-27T00:51:30.817Z,41.33
2018-01-27T00:53:59.259Z,59.07
2018-01-27T00:56:27.672Z,46.63
2018-01-27T00:58:56.113Z,45.13
2018-01-27T01:01:24.554Z,47.27
2018-01-27T01:03:52.978Z,44.93
2018-01-27T01:06:21.379Z,53.60
2018-01-27T01:08:49.809Z,53.07
2018-01-27T01:11:18.221Z,62.50
2018-01-27T01:13:46.658Z,47.70
2018-01-27T01:16:15.121Z,57.47
2018-01-27T01:18:43.524Z,62.47
2018-01-27T01:21:11.914Z,62.80
2018-01-27T01:23:40.368Z,54.20
2018-01-27T01:26:08.756Z,53.17
2018-01-27T01:28:37.146Z,70.00
2018-01-27T01:31:05.596Z,62.53
2018-01-27T01:33:34.013Z,72.03
2018-01-27T01:36:02.405Z,43.87
2018-01-27T01:38:30.864Z,41.00
2018-01-27T01:40:59.268Z,58.87
2018-01-27T01:43:33.222Z,69.60
2018-01-27T01:46:01.644Z,50.20
2018-01-27T01:48:30.063Z,57.73
2018-01-27T01:50:58.497Z,68.83
2018-01-27T01:53:26.909Z,67.40
2018-01-27T01:55:55.329Z,75.77
2018-01-27T01:58:23.782Z,62.90
2018-01-27T02:00:52.200Z,59.83
2018-01-27T02:03:20.598Z,60.13
2018-01-27T02:05:49.057Z,63.83
2018-01-27T02:08:17.449Z,64.10
2018-01-27T02:10:45.838Z,62.13
2018-01-27T02:13:14.326Z,62.57
2018-01-27T02:15:42.769Z,69.23
2018-01-27T02:18:11.188Z,56.13
2018-01-27T02:20:39.680Z,65.77
2018-01-27T02:23:08.085Z,65.57
2018-01-27T02:25:36.480Z,65.90
2018-01-27T02:28:04.975Z,59.87
2018-01-27T02:30:33.389Z,54.93
2018-01-27T02:33:01.802Z,57.60
2018-01-27T02:35:30.251Z,69.03
2018-01-27T02:37:58.651Z,49.10
2018-01-27T02:40:27.045Z,61.27
2018-01-27T02:42:55.497Z,58.67
2018-01-27T02:45:23.935Z,58.60
2018-01-27T02:47:52.325Z,57.07
2018-01-27T02:50:20.763Z,61.20
2018-01-27T02:52:49.166Z,59.17
2018-01-27T02:55:17.560Z,67.80
2018-01-27T02:57:46.010Z,55.83
2018-01-27T03:00:14.444Z,53.60
2018-01-27T03:02:42.847Z,69.67
2018-01-27T03:05:11.293Z,59.27
2018-01-27T03:07:39.701Z,62.67
2018-01-27T03:10:08.095Z,63.60
2018-01-27T03:12:36.540Z,63.50
2018-01-27T03:15:04.973Z,59.73
2018-01-27T03:17:33.373Z,62.67
2018-01-27T03:20:02.112Z,60.80
2018-01-27T03:22:30.510Z,62.47
2018-01-27T03:24:58.937Z,55.37
2018-01-27T03:27:27.403Z,70.37
2018-01-27T03:29:55.880Z,60.03
2018-01-27T03:32:24.262Z,65.57
2018-01-27T03:34:52.708Z,63.80
2018-01-27T03:37:21.098Z,68.40
2018-01-27T03:39:49.519Z,58.10
2018-01-27T03:42:17.969Z,54.40
2018-01-27T03:44:46.365Z,59.13
2018-01-27T03:47:14.785Z,59.37
2018-01-27T03:49:43.245Z,53.27
2018-01-27T03:52:11.669Z,51.07
2018-01-27T03:54:40.081Z,49.53
2018-01-27T03:57:08.544Z,49.53
2018-01-27T03:59:36.935Z,55.03
2018-01-27T04:02:05.354Z,56.80
2018-01-27T04:04:33.790Z,55.83
2018-01-27T04:07:02.195Z,46.70
2018-01-27T04:09:30.601Z,57.50
2018-01-27T04:11:59.037Z,59.03
2018-01-27T04:14:27.430Z,68.40
2018-01-27T04:16:55.824Z,66.30
2018-01-27T04:19:24.250Z,65.80
2018-01-27T04:21:52.657Z,41.20
2018-01-27T04:24:21.068Z,62.47
2018-01-27T04:26:49.516Z,65.73
2018-01-27T04:29:17.936Z,70.97
2018-01-27T04:31:46.352Z,61.20
2018-01-27T04:34:15.124Z,68.80
2018-01-27T04:36:43.569Z,61.23
2018-01-27T04:39:11.984Z,54.53
2018-01-27T04:41:40.503Z,59.33
2018-01-27T04:44:08.949Z,50.13
2018-01-27T04:46:37.392Z,52.43
2018-01-27T04:49:05.845Z,51.87
2018-01-27T04:51:34.265Z,43.00
2018-01-27T04:54:02.662Z,42.60
2018-01-27T04:56:31.109Z,44.97
2018-01-27T04:58:59.538Z,43.70
2018-01-27T05:01:27.929Z,48.03
2018-01-27T05:03:56.390Z,44.10
2018-01-27T05:06:24.796Z,47.17
2018-01-27T05:08:53.208Z,48.77
2018-01-27T05:11:21.896Z,43.03
2018-01-27T05:13:50.336Z,48.70
2018-01-27T05:16:18.716Z,49.77
2018-01-27T05:18:47.189Z,46.10
2018-01-27T05:21:15.601Z,48.93
2018-01-27T05:23:43.994Z,50.03
2018-01-27T05:26:12.438Z,50.33
2018-01-27T05:28:40.825Z,51.10
2018-01-27T05:31:09.213Z,52.67
2018-01-27T05:33:37.660Z,56.20
2018-01-27T05:36:06.074Z,53.13
2018-01-27T05:38:34.481Z,54.73
2018-01-27T05:41:02.920Z,49.93
2018-01-27T05:43:31.329Z,54.80
2018-01-27T05:45:59.729Z,52.63
2018-01-27T05:48:28.180Z,53.30
2018-01-27T05:50:56.593Z,59.90
2018-01-27T05:53:24.981Z,55.03
2018-01-27T05:55:54.366Z,56.00
2018-01-27T05:58:22.806Z,57.27
2018-01-27T06:00:51.198Z,49.50
2018-01-27T06:03:19.641Z,51.43
2018-01-27T06:05:48.045Z,57.23
2018-01-27T06:08:16.472Z,50.33
2018-01-27T06:10:44.929Z,59.17
2018-01-27T06:13:13.352Z,55.47
2018-01-27T06:15:41.786Z,44.97
2018-01-27T06:18:10.245Z,57.43
2018-01-27T06:20:38.642Z,52.47
2018-01-27T06:23:07.064Z,51.53
2018-01-27T06:25:35.528Z,45.97
2018-01-27T06:28:03.923Z,54.00
2018-01-27T06:30:32.373Z,57.03
2018-01-27T06:33:01.338Z,53.63
2018-01-27T06:35:29.794Z,59.03
2018-01-27T06:37:58.186Z,57.53
2018-01-27T06:40:26.633Z,58.50
2018-01-27T06:42:55.031Z,65.33
2018-01-27T06:45:23.422Z,55.60
2018-01-27T06:47:51.881Z,50.93
2018-01-27T06:50:20.292Z,51.10
2018-01-27T06:52:48.754Z,59.13
2018-01-27T06:55:17.192Z,60.87
2018-01-27T06:57:45.613Z,55.17
2018-01-27T07:00:14.040Z,64.63
2018-01-27T07:02:42.494Z,58.30
2018-01-27T07:05:10.890Z,54.57
2018-01-27T07:07:39.301Z,56.27
2018-01-27T07:10:07.758Z,56.43
2018-01-27T07:12:36.168Z,58.73
2018-01-27T07:15:04.588Z,52.87
2018-01-27T07:17:33.054Z,59.67
2018-01-27T07:20:01.462Z,58.03
2018-01-27T07:22:29.865Z,52.63
2018-01-27T07:24:58.308Z,53.00
2018-01-27T07:27:26.754Z,53.70
2018-01-27T07:29:55.170Z,54.73
2018-01-27T07:32:23.621Z,56.27
2018-01-27T07:34:52.005Z,58.37
2018-01-27T07:37:20.422Z,52.13
2018-01-27T07:39:48.888Z,64.00
2018-01-27T07:42:17.288Z,56.07
2018-01-27T07:44:45.678Z,48.67
2018-01-27T07:47:14.105Z,47.53
2018-01-27T07:49:42.493Z,49.77
2018-01-27T07:52:10.906Z,52.07
2018-01-27T07:54:39.337Z,53.33
2018-01-27T07:57:07.751Z,66.87
2018-01-27T07:59:36.176Z,109.47
2018-01-27T08:02:04.628Z,79.13
2018-01-27T08:04:33.027Z,82.30
2018-01-27T08:07:01.442Z,126.77
2018-01-27T08:09:29.880Z,64.93
2018-01-27T08:11:58.285Z,55.10
2018-01-27T08:14:26.701Z,49.17
2018-01-27T08:16:55.168Z,52.87
2018-01-27T08:19:23.604Z,52.73
2018-01-27T08:21:52.391Z,94.10
2018-01-27T08:24:20.846Z,92.53
2018-01-27T08:26:49.258Z,60.03
2018-01-27T08:29:17.681Z,74.30
2018-01-27T08:31:46.168Z,60.03
2018-01-27T08:34:14.561Z,88.07
2018-01-27T08:36:42.962Z,66.40
2018-01-27T08:39:11.410Z,54.97
2018-01-27T08:41:39.793Z,50.00
2018-01-27T08:44:08.197Z,55.87
2018-01-27T08:46:36.657Z,58.67
2018-01-27T08:49:05.069Z,58.60
2018-01-27T08:51:33.463Z,56.00
2018-01-27T08:54:01.969Z,54.57
2018-01-27T08:56:30.369Z,49.90
2018-01-27T08:58:58.782Z,56.17
2018-01-27T09:01:27.214Z,63.20
2018-01-27T09:03:55.620Z,62.93
2018-01-27T09:06:24.026Z,397.97
2018-01-27T09:08:52.530Z,285.63
2018-01-27T09:11:20.934Z,65.07
2018-01-27T09:13:49.318Z,53.70
2018-01-27T09:16:17.789Z,66.00
2018-01-27T09:18:46.212Z,59.77
2018-01-27T09:21:14.620Z,52.47
2018-01-27T09:23:43.051Z,54.27
2018-01-27T09:26:11.438Z,61.23
2018-01-27T09:28:39.937Z,104.27
2018-01-27T09:31:08.387Z,168.97
2018-01-27T09:33:36.800Z,138.70
2018-01-27T09:36:05.224Z,144.93
2018-01-27T09:38:33.704Z,111.90
2018-01-27T09:41:02.116Z,63.47
2018-01-27T09:43:30.557Z,110.77
2018-01-27T09:45:59.057Z,234.33
2018-01-27T09:48:27.473Z,96.60
2018-01-27T09:50:55.897Z,73.13
2018-01-27T09:53:24.370Z,103.47
2018-01-27T09:55:52.772Z,66.90
2018-01-27T09:58:21.206Z,59.90
2018-01-27T10:00:49.648Z,73.03
2018-01-27T10:03:18.069Z,62.23
2018-01-27T10:05:46.509Z,74.73
2018-01-27T10:08:14.960Z,56.20
2018-01-27T10:10:43.358Z,54.20
2018-01-27T10:13:11.753Z,55.67
2018-01-27T10:15:40.209Z,56.03
2018-01-27T10:18:08.628Z,48.97
2018-01-27T10:20:37.049Z,51.23
2018-01-27T10:23:05.498Z,53.03
2018-01-27T10:25:33.910Z,49.03
2018-01-27T10:28:02.307Z,50.60
2018-01-27T10:30:30.787Z,51.53
2018-01-27T10:32:59.203Z,53.10
2018-01-27T10:35:27.627Z,46.57
2018-01-27T10:37:56.118Z,50.57
2018-01-27T10:40:24.533Z,52.63
2018-01-27T10:42:53.012Z,58.73
2018-01-27T10:45:21.449Z,47.87
2018-01-27T10:47:49.850Z,52.17
2018-01-27T10:50:18.272Z,52.03
2018-01-27T10:52:46.726Z,51.33
2018-01-27T10:55:15.117Z,46.00
2018-01-27T10:57:43.522Z,44.30
2018-01-27T11:00:11.993Z,43.10
2018-01-27T11:02:40.389Z,46.23
2018-01-27T11:05:08.805Z,50.53
2018-01-27T11:07:37.548Z,48.80
2018-01-27T11:10:05.974Z,51.93
2018-01-27T11:12:34.407Z,46.53
2018-01-27T11:15:02.862Z,50.77
2018-01-27T11:17:31.280Z,45.10
2018-01-27T11:19:59.696Z,49.83
2018-01-27T11:22:28.147Z,49.63
2018-01-27T11:24:56.578Z,52.13
2018-01-27T11:27:25.038Z,51.97
2018-01-27T11:29:53.495Z,49.80
2018-01-27T11:32:21.921Z,53.13
2018-01-27T11:34:50.346Z,50.10
2018-01-27T11:37:18.797Z,48.60
2018-01-27T11:39:47.229Z,50.93
2018-01-27T11:42:15.647Z,50.03
2018-01-27T11:44:44.094Z,53.93
2018-01-27T11:47:12.520Z,52.37
2018-01-27T11:49:40.943Z,49.87
2018-01-27T11:52:09.381Z,56.20
2018-01-27T11:54:37.810Z,52.43
2018-01-27T11:57:06.211Z,52.03
2018-01-27T11:59:34.693Z,46.90
2018-01-27T12:02:03.133Z,49.40
2018-01-27T12:04:31.550Z,49.87
2018-01-27T12:07:00.008Z,47.73
2018-01-27T12:09:28.426Z,53.60
2018-01-27T12:11:56.849Z,53.00
2018-01-27T12:14:25.507Z,47.50
2018-01-27T12:16:53.933Z,47.77
2018-01-27T12:19:22.346Z,47.43
2018-01-27T12:21:50.818Z,48.53
2018-01-27T12:24:19.246Z,48.97
2018-01-27T12:26:47.662Z,43.33
2018-01-27T12:29:16.266Z,43.20
2018-01-27T12:31:44.681Z,43.20
2018-01-27T12:34:13.113Z,47.13
2018-01-27T12:36:41.621Z,43.90
2018-01-27T12:39:10.037Z,43.27
2018-01-27T12:41:38.470Z,44.00
2018-01-27T12:44:06.921Z,51.30
2018-01-27T12:46:35.344Z,48.37
2018-01-27T12:49:03.762Z,54.47
2018-01-27T12:51:32.230Z,45.97
2018-01-27T12:54:00.635Z,44.67
2018-01-27T12:56:29.044Z,45.27
2018-01-27T12:58:57.509Z,45.53
2018-01-27T13:01:25.943Z,46.63
2018-01-27T13:03:54.363Z,50.97
2018-01-27T13:06:22.829Z,45.10
2018-01-27T13:08:51.245Z,45.77
2018-01-27T13:11:19.641Z,44.37
2018-01-27T13:13:48.095Z,48.87
2018-01-27T13:16:16.508Z,44.77
2018-01-27T13:18:44.911Z,52.20
2018-01-27T13:21:13.377Z,50.00
2018-01-27T13:23:41.805Z,47.67
2018-01-27T13:26:10.217Z,43.70
2018-01-27T13:28:38.681Z,45.50
2018-01-27T13:31:07.078Z,45.70
2018-01-27T13:33:35.473Z,38.63
2018-01-27T13:36:03.950Z,39.03
2018-01-27T13:38:32.367Z,42.97
2018-01-27T13:41:00.760Z,40.10
2018-01-27T13:43:29.223Z,41.47
2018-01-27T13:45:57.674Z,41.33
2018-01-27T13:48:26.079Z,44.43
2018-01-27T13:50:54.546Z,43.20
2018-01-27T13:53:22.948Z,43.97
2018-01-27T13:55:51.361Z,40.97
2018-01-27T13:58:19.819Z,45.23
2018-01-27T14:00:48.217Z,46.73
2018-01-27T14:03:16.681Z,43.10
2018-01-27T14:05:45.157Z,45.27
2018-01-27T14:08:13.573Z,41.97
2018-01-27T14:10:41.984Z,41.60
2018-01-27T14:13:10.448Z,46.73
2018-01-27T14:15:38.856Z,49.47
2018-01-27T14:18:07.249Z,45.73
2018-01-27T14:20:35.710Z,51.53
2018-01-27T14:23:04.130Z,50.40
2018-01-27T14:25:32.543Z,45.07
2018-01-27T14:28:00.993Z,49.80
2018-01-27T14:30:29.451Z,48.23
2018-01-27T14:32:57.856Z,52.10
2018-01-27T14:35:26.305Z,48.30
2018-01-27T14:37:54.715Z,51.20
2018-01-27T14:40:23.114Z,48.17
2018-01-27T14:42:51.585Z,49.77
2018-01-27T14:45:20.012Z,52.67
2018-01-27T14:47:48.413Z,51.67
2018-01-27T14:50:17.132Z,46.20
2018-01-27T14:52:45.536Z,50.07
2018-01-27T14:55:13.922Z,48.23
2018-01-27T14:57:42.380Z,49.83
2018-01-27T15:00:10.789Z,51.80
2018-01-27T15:02:39.185Z,51.33
2018-01-27T15:05:07.634Z,52.40
2018-01-27T15:07:36.035Z,48.23
2018-01-27T15:10:04.442Z,49.90
2018-01-27T15:12:32.901Z,51.03
2018-01-27T15:15:01.298Z,47.83
2018-01-27T15:17:29.717Z,48.00
2018-01-27T15:19:58.171Z,46.60
2018-01-27T15:22:26.593Z,48.10
2018-01-27T15:24:55.001Z,40.83
2018-01-27T15:27:23.452Z,46.27
2018-01-27T15:29:51.842Z,41.93
2018-01-27T15:32:20.238Z,41.30
2018-01-27T15:34:48.700Z,39.13
2018-01-27T15:37:17.098Z,38.50
2018-01-27T15:39:45.521Z,41.87
2018-01-27T15:42:13.987Z,46.63
2018-01-27T15:44:42.390Z,43.87
2018-01-27T15:47:10.792Z,51.57
2018-01-27T15:49:39.238Z,47.00
2018-01-27T15:52:07.660Z,46.67
2018-01-27T15:54:36.083Z,46.93
2018-01-27T15:57:04.543Z,42.13
2018-01-27T15:59:32.958Z,41.60
2018-01-27T16:02:01.358Z,43.13
2018-01-27T16:04:29.837Z,40.43
2018-01-27T16:06:58.268Z,37.63
2018-01-27T16:09:26.694Z,39.90
2018-01-27T16:11:55.185Z,38.37
2018-01-27T16:14:23.619Z,43.57
2018-01-27T16:16:52.034Z,39.23
2018-01-27T16:19:20.488Z,39.90
2018-01-27T16:21:48.896Z,42.10
2018-01-27T16:24:17.318Z,41.00
2018-01-27T16:26:45.820Z,35.17
2018-01-27T16:29:14.243Z,38.40
2018-01-27T16:31:42.692Z,39.30
2018-01-27T16:34:11.163Z,41.73
2018-01-27T16:36:39.624Z,41.77
2018-01-27T16:39:08.038Z,61.53
2018-01-27T16:41:36.730Z,49.63
2018-01-27T16:44:05.176Z,44.23
2018-01-27T16:46:33.629Z,41.13
2018-01-27T16:49:02.103Z,45.57
2018-01-27T16:51:30.532Z,49.67
2018-01-27T16:53:58.965Z,48.53
2018-01-27T16:56:27.472Z,45.80
2018-01-27T16:58:55.905Z,37.37
2018-01-27T17:01:24.336Z,41.90
2018-01-27T17:03:53.738Z,38.27
2018-01-27T17:06:22.146Z,41.77
2018-01-27T17:08:50.560Z,37.27
2018-01-27T17:11:22.059Z,36.57
2018-01-27T17:13:50.499Z,38.13
2018-01-27T17:16:18.929Z,40.27
2018-01-27T17:18:47.416Z,35.07
2018-01-27T17:21:15.833Z,38.23
2018-01-27T17:23:44.238Z,39.20
2018-01-27T17:26:12.695Z,32.67
2018-01-27T17:28:41.129Z,43.63
2018-01-27T17:31:09.549Z,45.30
2018-01-27T17:33:37.981Z,44.07
2018-01-27T17:36:06.403Z,41.27
2018-01-27T17:38:34.813Z,38.20
2018-01-27T17:41:03.276Z,34.57
2018-01-27T17:43:31.669Z,38.33
2018-01-27T17:46:00.092Z,37.53
2018-01-27T17:48:28.594Z,37.13
2018-01-27T17:50:57.014Z,36.70
2018-01-27T17:53:25.418Z,36.23
2018-01-27T17:55:53.878Z,35.67
2018-01-27T17:58:22.320Z,33.87
2018-01-27T18:00:50.717Z,36.57
2018-01-27T18:03:19.214Z,38.27
2018-01-27T18:05:47.609Z,40.03
2018-01-27T18:08:16.041Z,33.50
2018-01-27T18:10:44.477Z,35.50
2018-01-27T18:13:12.880Z,40.20
2018-01-27T18:15:41.300Z,35.67
2018-01-27T18:18:09.801Z,40.50
2018-01-27T18:20:38.212Z,37.27
2018-01-27T18:23:06.642Z,45.23
2018-01-27T18:25:35.110Z,40.07
2018-01-27T18:28:03.528Z,42.13
2018-01-27T18:30:31.951Z,37.73
2018-01-27T18:33:00.398Z,38.03
2018-01-27T18:35:28.818Z,40.07
2018-01-27T18:37:57.217Z,39.60
2018-01-27T18:40:25.880Z,38.33
2018-01-27T18:42:54.277Z,39.00
2018-01-27T18:45:22.709Z,37.27
2018-01-27T18:47:51.176Z,43.63
2018-01-27T18:50:19.618Z,39.77
2018-01-27T18:52:48.041Z,43.10
2018-01-27T18:55:16.482Z,36.77
2018-01-27T18:57:44.905Z,35.23
2018-01-27T19:00:13.342Z,30.77
2018-01-27T19:02:41.801Z,40.57
2018-01-27T19:05:10.222Z,38.57
2018-01-27T19:07:38.633Z,39.80
2018-01-27T19:10:07.155Z,35.73
2018-01-27T19:12:35.601Z,37.60
2018-01-27T19:15:04.060Z,33.30
2018-01-27T19:17:32.548Z,34.83
2018-01-27T19:20:00.972Z,34.70
2018-01-27T19:22:29.373Z,33.37
2018-01-27T19:24:57.846Z,32.10
2018-01-27T19:27:26.255Z,28.43
2018-01-27T19:29:54.696Z,29.83
2018-01-27T19:32:23.201Z,31.33
2018-01-27T19:34:51.617Z,30.57
2018-01-27T19:37:20.028Z,32.10
2018-01-27T19:39:48.505Z,28.70
2018-01-27T19:42:16.907Z,28.60
2018-01-27T19:44:45.302Z,27.80
2018-01-27T19:47:13.781Z,26.07
2018-01-27T19:49:42.208Z,27.43
2018-01-27T19:52:10.655Z,26.63
2018-01-27T19:54:39.089Z,29.87
2018-01-27T19:57:07.508Z,25.00
2018-01-27T19:59:35.937Z,24.43
2018-01-27T20:02:04.386Z,25.37
2018-01-27T20:04:32.800Z,24.20
2018-01-27T20:07:01.194Z,27.20
2018-01-27T20:09:30.588Z,26.30
2018-01-27T20:11:58.993Z,26.27
2018-01-27T20:14:27.408Z,25.10
2018-01-27T20:16:55.848Z,25.23
2018-01-27T20:19:24.248Z,25.27
2018-01-27T20:21:52.659Z,21.93
2018-01-27T20:24:21.117Z,22.93
2018-01-27T20:26:49.528Z,21.43
2018-01-27T20:29:17.940Z,21.10
2018-01-27T20:31:46.391Z,22.97
2018-01-27T20:34:14.813Z,19.80
2018-01-27T20:36:43.209Z,18.30
2018-01-27T20:39:11.652Z,16.43
2018-01-27T20:41:40.081Z,18.13
2018-01-27T20:44:08.501Z,18.50
2018-01-27T20:46:36.957Z,16.17
2018-01-27T20:49:05.370Z,18.63
2018-01-27T20:51:33.826Z,19.17
2018-01-27T20:54:02.285Z,15.30
2018-01-27T20:56:30.733Z,18.10
2018-01-27T20:58:59.172Z,17.97
2018-01-27T21:01:27.645Z,17.33
2018-01-27T21:03:56.042Z,19.27
2018-01-27T21:06:24.497Z,16.13
2018-01-27T21:08:52.977Z,14.93
2018-01-27T21:11:21.403Z,14.13
2018-01-27T21:13:49.812Z,15.10
2018-01-27T21:16:18.296Z,14.50
2018-01-27T21:18:46.712Z,14.53
2018-01-27T21:21:15.111Z,14.97
2018-01-27T21:23:43.569Z,15.17
2018-01-27T21:26:12.003Z,11.87
2018-01-27T21:28:40.428Z,14.93
2018-01-27T21:31:08.876Z,13.73
2018-01-27T21:33:37.281Z,15.60
2018-01-27T21:36:05.693Z,13.33
2018-01-27T21:38:34.160Z,16.53
2018-01-27T21:41:02.612Z,16.93
2018-01-27T21:43:31.043Z,14.33
2018-01-27T21:45:59.506Z,14.67
2018-01-27T21:48:27.912Z,16.00
2018-01-27T21:50:56.321Z,17.30
2018-01-27T21:53:24.781Z,16.93
2018-01-27T21:55:53.195Z,16.03
2018-01-27T21:58:21.597Z,14.90
2018-01-27T22:00:50.049Z,16.23
2018-01-27T22:03:18.470Z,14.13
2018-01-27T22:05:46.881Z,16.40
2018-01-27T22:08:15.529Z,16.50
2018-01-27T22:10:43.943Z,14.47
2018-01-27T22:13:12.350Z,14.83
2018-01-27T22:18:15.549Z,13.33
2018-01-27T22:20:44.013Z,15.47
2018-01-27T22:23:12.443Z,16.10
2018-01-27T22:25:40.845Z,13.83
2018-01-27T22:28:09.289Z,16.53
2018-01-27T22:30:37.683Z,15.57
2018-01-27T22:33:06.089Z,11.40
2018-01-27T22:35:34.537Z,12.63
2018-01-27T22:38:02.935Z,14.67
2018-01-27T22:40:31.353Z,13.47
2018-01-27T22:42:59.801Z,18.17
2018-01-27T22:45:28.208Z,18.33
2018-01-27T22:47:56.627Z,13.97
2018-01-27T22:50:25.079Z,14.00
2018-01-27T22:52:53.480Z,12.73
2018-01-27T22:55:21.910Z,13.27
2018-01-27T22:57:50.356Z,12.97
2018-01-27T23:00:18.758Z,11.77
2018-01-27T23:02:47.181Z,11.80
2018-01-27T23:05:15.639Z,13.10
2018-01-27T23:07:44.029Z,10.23
2018-01-27T23:10:12.457Z,12.63
2018-01-27T23:12:40.936Z,14.77
2018-01-27T23:15:09.341Z,15.17
2018-01-27T23:17:37.752Z,15.63
2018-01-27T23:20:06.185Z,11.93
2018-01-27T23:22:34.581Z,12.13
2018-01-27T23:25:03.014Z,11.70
2018-01-27T23:27:31.456Z,9.20
2018-01-27T23:29:59.903Z,10.70
2018-01-27T23:32:28.297Z,15.90
2018-01-27T23:34:56.749Z,12.67
2018-01-27T23:37:25.181Z,11.67
2018-01-27T23:39:53.609Z,10.83
2018-01-27T23:42:22.089Z,11.60
2018-01-27T23:44:50.517Z,11.87
2018-01-27T23:47:18.946Z,10.17
2018-01-27T23:49:47.391Z,9.57
2018-01-27T23:52:15.823Z,9.53
2018-01-27T23:54:44.256Z,7.73
2018-01-27T23:57:12.730Z,9.77
2018-01-27T23:59:41.179Z,9.77
